sensor_id;sensor_type;location;lat;lon;timestamp;temperature;humidity
1476;DHT22;730;48.870;12.542;2023-06-22T00:02:15;20.80;4.70
1476;DHT22;730;48.870;12.542;2023-06-22T00:04:41;20.80;4.90
1476;DHT22;730;48.870;12.542;2023-06-22T00:07:07;20.80;5.10
1476;DHT22;730;48.870;12.542;2023-06-22T00:09:34;20.80;5.20
1476;DHT22;730;48.870;12.542;2023-06-22T00:12:00;20.70;5.80
1476;DHT22;730;48.870;12.542;2023-06-22T00:14:27;20.70;6.10
1476;DHT22;730;48.870;12.542;2023-06-22T00:16:53;20.70;6.90
1476;DHT22;730;48.870;12.542;2023-06-22T00:19:23;20.70;7.10
1476;DHT22;730;48.870;12.542;2023-06-22T00:21:50;20.60;7.00
1476;DHT22;730;48.870;12.542;2023-06-22T00:24:24;20.50;7.80
1476;DHT22;730;48.870;12.542;2023-06-22T00:26:50;20.40;9.10
1476;DHT22;730;48.870;12.542;2023-06-22T00:29:16;20.30;9.70
1476;DHT22;730;48.870;12.542;2023-06-22T00:31:42;20.30;10.00
1476;DHT22;730;48.870;12.542;2023-06-22T00:34:08;20.20;10.00
1476;DHT22;730;48.870;12.542;2023-06-22T00:36:38;20.20;9.90
1476;DHT22;730;48.870;12.542;2023-06-22T00:39:06;20.20;9.50
1476;DHT22;730;48.870;12.542;2023-06-22T00:41:33;20.20;9.50
1476;DHT22;730;48.870;12.542;2023-06-22T00:44:00;20.20;9.80
1476;DHT22;730;48.870;12.542;2023-06-22T00:46:26;20.20;10.10
1476;DHT22;730;48.870;12.542;2023-06-22T00:48:52;20.20;10.40
1476;DHT22;730;48.870;12.542;2023-06-22T00:51:19;20.20;10.60
1476;DHT22;730;48.870;12.542;2023-06-22T00:53:50;20.10;11.60
1476;DHT22;730;48.870;12.542;2023-06-22T00:56:17;20.10;12.40
1476;DHT22;730;48.870;12.542;2023-06-22T00:58:46;20.10;13.50
1476;DHT22;730;48.870;12.542;2023-06-22T01:01:13;20.10;13.70
1476;DHT22;730;48.870;12.542;2023-06-22T01:03:40;20.20;14.90
1476;DHT22;730;48.870;12.542;2023-06-22T01:06:10;20.20;15.10
1476;DHT22;730;48.870;12.542;2023-06-22T01:09:00;20.20;15.20
1476;DHT22;730;48.870;12.542;2023-06-22T01:11:39;20.20;14.70
1476;DHT22;730;48.870;12.542;2023-06-22T01:14:21;20.20;14.60
1476;DHT22;730;48.870;12.542;2023-06-22T01:16:49;20.10;14.80
1476;DHT22;730;48.870;12.542;2023-06-22T01:19:35;20.20;14.90
1476;DHT22;730;48.870;12.542;2023-06-22T01:22:05;20.20;14.80
1476;DHT22;730;48.870;12.542;2023-06-22T01:24:44;20.20;14.90
1476;DHT22;730;48.870;12.542;2023-06-22T01:29:55;20.20;14.90
1476;DHT22;730;48.870;12.542;2023-06-22T01:32:32;20.20;14.50
1476;DHT22;730;48.870;12.542;2023-06-22T01:35:00;20.20;14.20
1476;DHT22;730;48.870;12.542;2023-06-22T01:37:30;20.20;14.40
1476;DHT22;730;48.870;12.542;2023-06-22T01:39:58;20.20;14.50
1476;DHT22;730;48.870;12.542;2023-06-22T01:42:25;20.20;14.40
1476;DHT22;730;48.870;12.542;2023-06-22T01:44:55;20.20;14.00
1476;DHT22;730;48.870;12.542;2023-06-22T01:47:22;20.20;13.90
1476;DHT22;730;48.870;12.542;2023-06-22T01:49:49;20.30;13.70
1476;DHT22;730;48.870;12.542;2023-06-22T01:52:15;20.20;13.70
1476;DHT22;730;48.870;12.542;2023-06-22T01:54:41;20.20;13.30
1476;DHT22;730;48.870;12.542;2023-06-22T01:57:07;20.20;12.90
1476;DHT22;730;48.870;12.542;2023-06-22T02:02:10;20.20;12.90
1476;DHT22;730;48.870;12.542;2023-06-22T02:04:52;20.20;12.90
1476;DHT22;730;48.870;12.542;2023-06-22T02:07:21;20.20;13.00
1476;DHT22;730;48.870;12.542;2023-06-22T02:09:51;20.20;13.20
1476;DHT22;730;48.870;12.542;2023-06-22T02:12:22;20.20;12.60
1476;DHT22;730;48.870;12.542;2023-06-22T02:14:54;20.30;12.50
1476;DHT22;730;48.870;12.542;2023-06-22T02:17:22;20.30;12.00
1476;DHT22;730;48.870;12.542;2023-06-22T02:19:49;20.30;11.60
1476;DHT22;730;48.870;12.542;2023-06-22T02:22:15;20.30;11.30
1476;DHT22;730;48.870;12.542;2023-06-22T02:24:49;20.30;11.00
1476;DHT22;730;48.870;12.542;2023-06-22T02:27:15;20.30;10.20
1476;DHT22;730;48.870;12.542;2023-06-22T02:29:41;20.30;9.60
1476;DHT22;730;48.870;12.542;2023-06-22T02:32:08;20.30;9.70
1476;DHT22;730;48.870;12.542;2023-06-22T02:34:35;20.30;9.80
1476;DHT22;730;48.870;12.542;2023-06-22T02:37:02;20.30;9.60
1476;DHT22;730;48.870;12.542;2023-06-22T02:39:28;20.30;9.40
1476;DHT22;730;48.870;12.542;2023-06-22T02:41:54;20.30;9.40
1476;DHT22;730;48.870;12.542;2023-06-22T02:44:22;20.30;9.20
1476;DHT22;730;48.870;12.542;2023-06-22T02:46:49;20.20;9.40
1476;DHT22;730;48.870;12.542;2023-06-22T02:49:15;20.20;9.40
1476;DHT22;730;48.870;12.542;2023-06-22T02:51:45;20.20;9.40
1476;DHT22;730;48.870;12.542;2023-06-22T02:54:11;20.20;9.60
1476;DHT22;730;48.870;12.542;2023-06-22T02:56:37;20.20;9.70
1476;DHT22;730;48.870;12.542;2023-06-22T02:59:08;20.20;9.70
1476;DHT22;730;48.870;12.542;2023-06-22T03:01:34;20.20;9.60
1476;DHT22;730;48.870;12.542;2023-06-22T03:04:07;20.20;9.60
1476;DHT22;730;48.870;12.542;2023-06-22T03:06:34;20.20;9.30
1476;DHT22;730;48.870;12.542;2023-06-22T03:09:04;20.20;8.70
1476;DHT22;730;48.870;12.542;2023-06-22T03:11:31;20.20;8.60
1476;DHT22;730;48.870;12.542;2023-06-22T03:13:58;20.20;8.60
1476;DHT22;730;48.870;12.542;2023-06-22T03:16:25;20.20;8.80
1476;DHT22;730;48.870;12.542;2023-06-22T03:18:51;20.10;8.90
1476;DHT22;730;48.870;12.542;2023-06-22T03:21:21;20.10;8.90
1476;DHT22;730;48.870;12.542;2023-06-22T03:23:47;20.10;8.70
1476;DHT22;730;48.870;12.542;2023-06-22T03:26:16;20.10;8.80
1476;DHT22;730;48.870;12.542;2023-06-22T03:28:43;20.10;9.00
1476;DHT22;730;48.870;12.542;2023-06-22T03:31:09;20.10;9.00
1476;DHT22;730;48.870;12.542;2023-06-22T03:33:35;20.10;8.70
1476;DHT22;730;48.870;12.542;2023-06-22T03:36:01;20.10;8.60
1476;DHT22;730;48.870;12.542;2023-06-22T03:38:27;20.20;8.80
1476;DHT22;730;48.870;12.542;2023-06-22T03:40:53;20.10;8.90
1476;DHT22;730;48.870;12.542;2023-06-22T03:43:19;20.10;9.00
1476;DHT22;730;48.870;12.542;2023-06-22T03:45:45;20.10;9.30
1476;DHT22;730;48.870;12.542;2023-06-22T03:48:12;20.20;9.20
1476;DHT22;730;48.870;12.542;2023-06-22T03:50:38;20.10;9.10
1476;DHT22;730;48.870;12.542;2023-06-22T03:53:04;20.10;8.80
1476;DHT22;730;48.870;12.542;2023-06-22T03:55:30;20.00;8.70
1476;DHT22;730;48.870;12.542;2023-06-22T03:57:56;20.00;8.90
1476;DHT22;730;48.870;12.542;2023-06-22T04:00:23;20.00;9.00
1476;DHT22;730;48.870;12.542;2023-06-22T04:02:49;20.00;8.90
1476;DHT22;730;48.870;12.542;2023-06-22T04:05:16;20.00;8.90
1476;DHT22;730;48.870;12.542;2023-06-22T04:07:45;19.90;9.10
1476;DHT22;730;48.870;12.542;2023-06-22T04:10:11;19.90;9.40
1476;DHT22;730;48.870;12.542;2023-06-22T04:12:37;20.00;9.80
1476;DHT22;730;48.870;12.542;2023-06-22T04:15:03;20.00;9.70
1476;DHT22;730;48.870;12.542;2023-06-22T04:17:31;20.00;9.90
1476;DHT22;730;48.870;12.542;2023-06-22T04:19:57;20.10;10.20
1476;DHT22;730;48.870;12.542;2023-06-22T04:22:23;20.10;10.20
1476;DHT22;730;48.870;12.542;2023-06-22T04:24:49;20.20;9.90
1476;DHT22;730;48.870;12.542;2023-06-22T04:27:18;20.20;9.80
1476;DHT22;730;48.870;12.542;2023-06-22T04:29:45;20.30;9.60
1476;DHT22;730;48.870;12.542;2023-06-22T04:32:15;20.30;9.80
1476;DHT22;730;48.870;12.542;2023-06-22T04:34:42;20.30;9.70
1476;DHT22;730;48.870;12.542;2023-06-22T04:37:08;20.40;9.80
1476;DHT22;730;48.870;12.542;2023-06-22T04:39:34;20.40;9.30
1476;DHT22;730;48.870;12.542;2023-06-22T04:42:01;20.40;9.20
1476;DHT22;730;48.870;12.542;2023-06-22T04:44:28;20.50;9.30
1476;DHT22;730;48.870;12.542;2023-06-22T04:46:56;20.50;9.80
1476;DHT22;730;48.870;12.542;2023-06-22T04:49:26;20.60;9.70
1476;DHT22;730;48.870;12.542;2023-06-22T04:52:00;20.70;10.20
1476;DHT22;730;48.870;12.542;2023-06-22T04:54:26;20.70;10.10
1476;DHT22;730;48.870;12.542;2023-06-22T04:56:55;20.80;10.00
1476;DHT22;730;48.870;12.542;2023-06-22T04:59:28;20.80;10.20
1476;DHT22;730;48.870;12.542;2023-06-22T05:01:56;21.00;10.20
1476;DHT22;730;48.870;12.542;2023-06-22T05:04:24;21.10;10.20
1476;DHT22;730;48.870;12.542;2023-06-22T05:06:51;21.20;9.70
1476;DHT22;730;48.870;12.542;2023-06-22T05:09:18;21.30;9.50
1476;DHT22;730;48.870;12.542;2023-06-22T05:11:44;21.40;8.70
1476;DHT22;730;48.870;12.542;2023-06-22T05:14:11;21.50;8.30
1476;DHT22;730;48.870;12.542;2023-06-22T05:16:38;21.60;7.80
1476;DHT22;730;48.870;12.542;2023-06-22T05:19:04;21.80;7.10
1476;DHT22;730;48.870;12.542;2023-06-22T05:22:04;21.90;6.40
1476;DHT22;730;48.870;12.542;2023-06-22T05:25:10;22.10;4.50
1476;DHT22;730;48.870;12.542;2023-06-22T05:27:36;22.30;3.80
1476;DHT22;730;48.870;12.542;2023-06-22T05:30:06;22.50;3.80
1476;DHT22;730;48.870;12.542;2023-06-22T05:32:33;22.70;2.90
1476;DHT22;730;48.870;12.542;2023-06-22T05:34:59;22.80;1.80
1476;DHT22;730;48.870;12.542;2023-06-22T05:37:25;23.10;1.20
1476;DHT22;730;48.870;12.542;2023-06-22T05:39:52;23.20;1.00
1476;DHT22;730;48.870;12.542;2023-06-22T05:42:19;23.50;1.00
1476;DHT22;730;48.870;12.542;2023-06-22T05:44:45;23.60;1.00
1476;DHT22;730;48.870;12.542;2023-06-22T05:47:13;23.70;1.00
1476;DHT22;730;48.870;12.542;2023-06-22T05:49:39;23.90;1.00
1476;DHT22;730;48.870;12.542;2023-06-22T05:52:05;24.00;1.00
1476;DHT22;730;48.870;12.542;2023-06-22T05:54:31;24.20;1.00
1476;DHT22;730;48.870;12.542;2023-06-22T05:56:57;24.30;1.00
1476;DHT22;730;48.870;12.542;2023-06-22T05:59:23;24.50;1.00
1476;DHT22;730;48.870;12.542;2023-06-22T06:01:49;24.70;1.00
1476;DHT22;730;48.870;12.542;2023-06-22T06:04:19;24.90;1.00
1476;DHT22;730;48.870;12.542;2023-06-22T06:06:45;25.00;1.00
1476;DHT22;730;48.870;12.542;2023-06-22T06:09:13;25.20;1.00
1476;DHT22;730;48.870;12.542;2023-06-22T06:11:40;25.40;1.00
1476;DHT22;730;48.870;12.542;2023-06-22T06:14:06;25.60;1.00
1476;DHT22;730;48.870;12.542;2023-06-22T06:16:32;25.80;1.00
1476;DHT22;730;48.870;12.542;2023-06-22T06:18:58;26.10;1.00
1476;DHT22;730;48.870;12.542;2023-06-22T06:21:24;26.20;1.00
1476;DHT22;730;48.870;12.542;2023-06-22T06:23:50;26.40;1.00
1476;DHT22;730;48.870;12.542;2023-06-22T06:26:16;26.60;1.00
1476;DHT22;730;48.870;12.542;2023-06-22T06:28:43;26.80;1.00
1476;DHT22;730;48.870;12.542;2023-06-22T06:31:10;26.90;1.00
1476;DHT22;730;48.870;12.542;2023-06-22T06:33:37;26.90;1.00
1476;DHT22;730;48.870;12.542;2023-06-22T06:36:04;27.00;1.00
1476;DHT22;730;48.870;12.542;2023-06-22T06:38:30;27.20;1.00
1476;DHT22;730;48.870;12.542;2023-06-22T06:40:57;27.50;1.00
1476;DHT22;730;48.870;12.542;2023-06-22T06:43:23;27.60;1.00
1476;DHT22;730;48.870;12.542;2023-06-22T06:45:50;27.70;1.00
1476;DHT22;730;48.870;12.542;2023-06-22T06:48:16;27.80;1.00
1476;DHT22;730;48.870;12.542;2023-06-22T06:50:43;27.80;1.00
1476;DHT22;730;48.870;12.542;2023-06-22T06:53:10;27.80;1.00
1476;DHT22;730;48.870;12.542;2023-06-22T06:55:37;28.10;1.00
1476;DHT22;730;48.870;12.542;2023-06-22T06:58:03;28.40;1.00
1476;DHT22;730;48.870;12.542;2023-06-22T07:00:35;28.60;1.00
1476;DHT22;730;48.870;12.542;2023-06-22T07:03:01;28.90;1.00
1476;DHT22;730;48.870;12.542;2023-06-22T07:05:27;29.20;1.00
1476;DHT22;730;48.870;12.542;2023-06-22T07:07:53;29.60;1.00
1476;DHT22;730;48.870;12.542;2023-06-22T07:10:19;29.90;1.00
1476;DHT22;730;48.870;12.542;2023-06-22T07:12:45;30.20;1.00
1476;DHT22;730;48.870;12.542;2023-06-22T07:15:13;30.40;1.00
1476;DHT22;730;48.870;12.542;2023-06-22T07:17:40;30.60;1.00
1476;DHT22;730;48.870;12.542;2023-06-22T07:20:08;30.70;1.00
1476;DHT22;730;48.870;12.542;2023-06-22T07:22:36;30.90;1.00
1476;DHT22;730;48.870;12.542;2023-06-22T07:25:03;31.00;1.00
1476;DHT22;730;48.870;12.542;2023-06-22T07:27:37;31.20;1.00
1476;DHT22;730;48.870;12.542;2023-06-22T07:30:04;31.40;1.00
1476;DHT22;730;48.870;12.542;2023-06-22T07:32:30;31.60;1.00
1476;DHT22;730;48.870;12.542;2023-06-22T07:34:56;31.90;1.00
1476;DHT22;730;48.870;12.542;2023-06-22T07:37:22;32.00;1.00
1476;DHT22;730;48.870;12.542;2023-06-22T07:39:48;32.20;1.00
1476;DHT22;730;48.870;12.542;2023-06-22T07:42:16;32.30;1.00
1476;DHT22;730;48.870;12.542;2023-06-22T07:44:44;32.30;1.00
1476;DHT22;730;48.870;12.542;2023-06-22T07:47:10;32.20;1.00
1476;DHT22;730;48.870;12.542;2023-06-22T07:49:36;32.40;1.00
1476;DHT22;730;48.870;12.542;2023-06-22T07:52:03;32.60;1.00
1476;DHT22;730;48.870;12.542;2023-06-22T07:54:30;32.60;1.00
1476;DHT22;730;48.870;12.542;2023-06-22T07:56:56;32.50;1.00
1476;DHT22;730;48.870;12.542;2023-06-22T07:59:22;32.60;1.00
1476;DHT22;730;48.870;12.542;2023-06-22T08:01:48;32.70;1.00
1476;DHT22;730;48.870;12.542;2023-06-22T08:04:15;32.90;1.00
1476;DHT22;730;48.870;12.542;2023-06-22T08:06:41;33.20;1.00
1476;DHT22;730;48.870;12.542;2023-06-22T08:09:07;33.40;1.00
1476;DHT22;730;48.870;12.542;2023-06-22T08:11:33;33.70;1.00
1476;DHT22;730;48.870;12.542;2023-06-22T08:14:00;34.00;1.00
1476;DHT22;730;48.870;12.542;2023-06-22T08:16:26;34.10;1.00
1476;DHT22;730;48.870;12.542;2023-06-22T08:18:52;34.30;1.00
1476;DHT22;730;48.870;12.542;2023-06-22T08:21:18;34.60;1.00
1476;DHT22;730;48.870;12.542;2023-06-22T08:23:44;34.70;1.00
1476;DHT22;730;48.870;12.542;2023-06-22T08:26:10;35.00;1.00
1476;DHT22;730;48.870;12.542;2023-06-22T08:28:36;35.10;1.00
1476;DHT22;730;48.870;12.542;2023-06-22T08:31:02;35.20;1.00
1476;DHT22;730;48.870;12.542;2023-06-22T08:33:29;35.20;1.00
1476;DHT22;730;48.870;12.542;2023-06-22T08:35:57;35.30;1.00
1476;DHT22;730;48.870;12.542;2023-06-22T08:38:23;35.30;1.00
1476;DHT22;730;48.870;12.542;2023-06-22T08:40:50;35.20;1.00
1476;DHT22;730;48.870;12.542;2023-06-22T08:43:16;35.20;1.00
1476;DHT22;730;48.870;12.542;2023-06-22T08:45:42;35.20;1.00
1476;DHT22;730;48.870;12.542;2023-06-22T08:48:08;35.10;1.00
1476;DHT22;730;48.870;12.542;2023-06-22T08:50:34;35.10;1.00
1476;DHT22;730;48.870;12.542;2023-06-22T08:53:01;35.10;1.00
1476;DHT22;730;48.870;12.542;2023-06-22T08:55:27;35.10;1.00
1476;DHT22;730;48.870;12.542;2023-06-22T08:57:53;35.10;1.00
1476;DHT22;730;48.870;12.542;2023-06-22T09:00:19;35.00;1.00
1476;DHT22;730;48.870;12.542;2023-06-22T09:02:46;35.00;1.00
1476;DHT22;730;48.870;12.542;2023-06-22T09:05:13;34.90;1.00
1476;DHT22;730;48.870;12.542;2023-06-22T09:07:40;34.90;1.00
1476;DHT22;730;48.870;12.542;2023-06-22T09:10:06;34.90;1.00
1476;DHT22;730;48.870;12.542;2023-06-22T09:12:33;34.80;1.00
1476;DHT22;730;48.870;12.542;2023-06-22T09:15:00;34.70;1.00
1476;DHT22;730;48.870;12.542;2023-06-22T09:17:26;34.70;1.00
1476;DHT22;730;48.870;12.542;2023-06-22T09:19:53;34.70;1.00
1476;DHT22;730;48.870;12.542;2023-06-22T09:22:19;34.80;1.00
1476;DHT22;730;48.870;12.542;2023-06-22T09:24:46;34.70;1.00
1476;DHT22;730;48.870;12.542;2023-06-22T09:27:12;34.60;1.00
1476;DHT22;730;48.870;12.542;2023-06-22T09:29:38;34.60;1.00
1476;DHT22;730;48.870;12.542;2023-06-22T09:32:05;34.70;1.00
1476;DHT22;730;48.870;12.542;2023-06-22T09:34:31;34.70;1.00
1476;DHT22;730;48.870;12.542;2023-06-22T09:36:57;34.80;1.00
1476;DHT22;730;48.870;12.542;2023-06-22T09:39:26;34.80;1.00
1476;DHT22;730;48.870;12.542;2023-06-22T09:41:52;34.80;1.00
1476;DHT22;730;48.870;12.542;2023-06-22T09:44:18;34.80;1.00
1476;DHT22;730;48.870;12.542;2023-06-22T09:46:44;34.90;1.00
1476;DHT22;730;48.870;12.542;2023-06-22T09:49:10;34.90;1.00
1476;DHT22;730;48.870;12.542;2023-06-22T09:51:36;34.90;1.00
1476;DHT22;730;48.870;12.542;2023-06-22T09:54:02;34.90;1.00
1476;DHT22;730;48.870;12.542;2023-06-22T09:56:28;34.90;1.00
1476;DHT22;730;48.870;12.542;2023-06-22T09:58:58;34.80;1.00
1476;DHT22;730;48.870;12.542;2023-06-22T10:01:25;34.70;1.00
1476;DHT22;730;48.870;12.542;2023-06-22T10:03:52;34.80;1.00
1476;DHT22;730;48.870;12.542;2023-06-22T10:06:22;34.80;1.00
1476;DHT22;730;48.870;12.542;2023-06-22T10:08:50;34.90;1.00
1476;DHT22;730;48.870;12.542;2023-06-22T10:11:16;35.00;1.00
1476;DHT22;730;48.870;12.542;2023-06-22T10:13:42;35.10;1.00
1476;DHT22;730;48.870;12.542;2023-06-22T10:16:09;35.10;1.00
1476;DHT22;730;48.870;12.542;2023-06-22T10:18:35;35.10;1.00
1476;DHT22;730;48.870;12.542;2023-06-22T10:21:02;35.20;1.00
1476;DHT22;730;48.870;12.542;2023-06-22T10:23:28;35.30;1.00
1476;DHT22;730;48.870;12.542;2023-06-22T10:25:54;35.30;1.00
1476;DHT22;730;48.870;12.542;2023-06-22T10:28:20;35.40;1.00
1476;DHT22;730;48.870;12.542;2023-06-22T10:30:46;35.40;1.00
1476;DHT22;730;48.870;12.542;2023-06-22T10:33:12;35.50;1.00
1476;DHT22;730;48.870;12.542;2023-06-22T10:35:38;35.50;1.00
1476;DHT22;730;48.870;12.542;2023-06-22T10:38:05;35.50;1.00
1476;DHT22;730;48.870;12.542;2023-06-22T10:40:31;35.50;1.00
1476;DHT22;730;48.870;12.542;2023-06-22T10:42:57;35.50;1.00
1476;DHT22;730;48.870;12.542;2023-06-22T10:45:23;35.50;1.00
1476;DHT22;730;48.870;12.542;2023-06-22T10:47:49;35.50;1.00
1476;DHT22;730;48.870;12.542;2023-06-22T10:50:15;35.50;1.00
1476;DHT22;730;48.870;12.542;2023-06-22T10:52:41;35.50;1.00
1476;DHT22;730;48.870;12.542;2023-06-22T10:55:09;35.70;1.00
1476;DHT22;730;48.870;12.542;2023-06-22T10:57:35;35.70;1.00
1476;DHT22;730;48.870;12.542;2023-06-22T11:00:02;35.80;1.00
1476;DHT22;730;48.870;12.542;2023-06-22T11:02:31;35.80;1.00
1476;DHT22;730;48.870;12.542;2023-06-22T11:04:58;35.80;1.00
1476;DHT22;730;48.870;12.542;2023-06-22T11:07:26;35.80;1.00
1476;DHT22;730;48.870;12.542;2023-06-22T11:09:54;35.80;1.00
1476;DHT22;730;48.870;12.542;2023-06-22T11:12:20;35.90;1.00
1476;DHT22;730;48.870;12.542;2023-06-22T11:14:46;35.90;1.00
1476;DHT22;730;48.870;12.542;2023-06-22T11:17:15;35.90;1.00
1476;DHT22;730;48.870;12.542;2023-06-22T11:19:41;35.90;1.00
1476;DHT22;730;48.870;12.542;2023-06-22T11:22:07;36.00;1.00
1476;DHT22;730;48.870;12.542;2023-06-22T11:24:33;36.00;1.00
1476;DHT22;730;48.870;12.542;2023-06-22T11:27:00;36.00;1.00
1476;DHT22;730;48.870;12.542;2023-06-22T11:29:26;36.00;1.00
1476;DHT22;730;48.870;12.542;2023-06-22T11:31:52;36.00;1.00
1476;DHT22;730;48.870;12.542;2023-06-22T11:34:18;36.10;1.00
1476;DHT22;730;48.870;12.542;2023-06-22T11:36:45;36.00;1.00
1476;DHT22;730;48.870;12.542;2023-06-22T11:39:11;36.00;1.00
1476;DHT22;730;48.870;12.542;2023-06-22T11:41:38;36.10;1.00
1476;DHT22;730;48.870;12.542;2023-06-22T11:44:04;36.10;1.00
1476;DHT22;730;48.870;12.542;2023-06-22T11:46:30;36.10;1.00
1476;DHT22;730;48.870;12.542;2023-06-22T11:48:57;36.10;1.00
1476;DHT22;730;48.870;12.542;2023-06-22T11:51:23;36.10;1.00
1476;DHT22;730;48.870;12.542;2023-06-22T11:53:49;36.10;1.00
1476;DHT22;730;48.870;12.542;2023-06-22T11:56:19;36.10;1.00
1476;DHT22;730;48.870;12.542;2023-06-22T11:58:45;36.10;1.00
1476;DHT22;730;48.870;12.542;2023-06-22T12:01:11;36.10;1.00
1476;DHT22;730;48.870;12.542;2023-06-22T12:03:41;36.20;1.00
1476;DHT22;730;48.870;12.542;2023-06-22T12:06:09;36.10;1.00
1476;DHT22;730;48.870;12.542;2023-06-22T12:08:35;36.20;1.00
1476;DHT22;730;48.870;12.542;2023-06-22T12:11:01;36.30;1.00
1476;DHT22;730;48.870;12.542;2023-06-22T12:13:27;36.40;1.00
1476;DHT22;730;48.870;12.542;2023-06-22T12:15:53;36.40;1.00
1476;DHT22;730;48.870;12.542;2023-06-22T12:18:20;36.50;1.00
1476;DHT22;730;48.870;12.542;2023-06-22T12:20:49;36.50;1.00
1476;DHT22;730;48.870;12.542;2023-06-22T12:23:15;36.40;1.00
1476;DHT22;730;48.870;12.542;2023-06-22T12:25:41;36.30;1.00
1476;DHT22;730;48.870;12.542;2023-06-22T12:28:07;36.20;1.00
1476;DHT22;730;48.870;12.542;2023-06-22T12:30:33;36.10;1.00
1476;DHT22;730;48.870;12.542;2023-06-22T12:32:59;36.10;1.00
1476;DHT22;730;48.870;12.542;2023-06-22T12:35:25;36.00;1.00
1476;DHT22;730;48.870;12.542;2023-06-22T12:37:51;36.00;1.00
1476;DHT22;730;48.870;12.542;2023-06-22T12:40:18;36.10;1.00
1476;DHT22;730;48.870;12.542;2023-06-22T12:42:45;36.10;1.00
1476;DHT22;730;48.870;12.542;2023-06-22T12:45:11;36.30;1.00
1476;DHT22;730;48.870;12.542;2023-06-22T12:47:37;36.40;1.00
1476;DHT22;730;48.870;12.542;2023-06-22T12:50:03;36.50;1.00
1476;DHT22;730;48.870;12.542;2023-06-22T12:52:30;36.60;1.00
1476;DHT22;730;48.870;12.542;2023-06-22T12:54:59;36.70;1.00
1476;DHT22;730;48.870;12.542;2023-06-22T12:57:25;36.70;1.00
1476;DHT22;730;48.870;12.542;2023-06-22T12:59:51;36.70;1.00
1476;DHT22;730;48.870;12.542;2023-06-22T13:02:18;36.70;1.00
1476;DHT22;730;48.870;12.542;2023-06-22T13:04:44;36.80;1.00
1476;DHT22;730;48.870;12.542;2023-06-22T13:07:10;36.90;1.00
1476;DHT22;730;48.870;12.542;2023-06-22T13:09:36;37.10;1.00
1476;DHT22;730;48.870;12.542;2023-06-22T13:12:03;37.40;1.00
1476;DHT22;730;48.870;12.542;2023-06-22T13:14:29;37.40;1.00
1476;DHT22;730;48.870;12.542;2023-06-22T13:16:57;37.70;1.00
1476;DHT22;730;48.870;12.542;2023-06-22T13:19:24;38.00;1.00
1476;DHT22;730;48.870;12.542;2023-06-22T13:21:51;38.20;1.00
1476;DHT22;730;48.870;12.542;2023-06-22T13:24:17;38.50;1.00
1476;DHT22;730;48.870;12.542;2023-06-22T13:26:43;38.80;1.00
1476;DHT22;730;48.870;12.542;2023-06-22T13:29:09;39.10;1.00
1476;DHT22;730;48.870;12.542;2023-06-22T13:31:35;39.30;1.00
1476;DHT22;730;48.870;12.542;2023-06-22T13:34:01;39.50;1.00
1476;DHT22;730;48.870;12.542;2023-06-22T13:36:27;39.70;1.00
1476;DHT22;730;48.870;12.542;2023-06-22T13:38:56;39.70;1.00
1476;DHT22;730;48.870;12.542;2023-06-22T13:41:22;39.90;1.00
1476;DHT22;730;48.870;12.542;2023-06-22T13:43:48;40.00;1.00
1476;DHT22;730;48.870;12.542;2023-06-22T13:46:14;40.10;1.00
1476;DHT22;730;48.870;12.542;2023-06-22T13:48:40;40.00;1.00
1476;DHT22;730;48.870;12.542;2023-06-22T13:51:06;40.00;1.00
1476;DHT22;730;48.870;12.542;2023-06-22T13:53:32;40.20;1.00
1476;DHT22;730;48.870;12.542;2023-06-22T13:55:58;40.40;1.00
1476;DHT22;730;48.870;12.542;2023-06-22T13:58:24;40.60;1.00
1476;DHT22;730;48.870;12.542;2023-06-22T14:00:55;40.70;1.00
1476;DHT22;730;48.870;12.542;2023-06-22T14:03:21;40.70;1.00
1476;DHT22;730;48.870;12.542;2023-06-22T14:05:47;40.60;1.00
1476;DHT22;730;48.870;12.542;2023-06-22T14:08:13;40.50;1.00
1476;DHT22;730;48.870;12.542;2023-06-22T14:10:40;40.40;1.00
1476;DHT22;730;48.870;12.542;2023-06-22T14:13:06;40.40;1.00
1476;DHT22;730;48.870;12.542;2023-06-22T14:15:32;40.30;1.00
1476;DHT22;730;48.870;12.542;2023-06-22T14:17:58;40.50;1.00
1476;DHT22;730;48.870;12.542;2023-06-22T14:20:24;40.60;1.00
1476;DHT22;730;48.870;12.542;2023-06-22T14:22:50;40.70;1.00
1476;DHT22;730;48.870;12.542;2023-06-22T14:25:17;40.90;1.00
1476;DHT22;730;48.870;12.542;2023-06-22T14:27:43;41.00;1.00
1476;DHT22;730;48.870;12.542;2023-06-22T14:30:10;40.90;1.00
1476;DHT22;730;48.870;12.542;2023-06-22T14:32:36;41.00;1.00
1476;DHT22;730;48.870;12.542;2023-06-22T14:35:02;40.70;1.00
1476;DHT22;730;48.870;12.542;2023-06-22T14:37:28;40.60;1.00
1476;DHT22;730;48.870;12.542;2023-06-22T14:39:54;40.50;1.00
1476;DHT22;730;48.870;12.542;2023-06-22T14:42:20;40.40;1.00
1476;DHT22;730;48.870;12.542;2023-06-22T14:44:47;40.10;1.00
1476;DHT22;730;48.870;12.542;2023-06-22T14:47:14;40.00;1.00
1476;DHT22;730;48.870;12.542;2023-06-22T14:49:40;39.90;1.00
1476;DHT22;730;48.870;12.542;2023-06-22T14:52:07;39.80;1.00
1476;DHT22;730;48.870;12.542;2023-06-22T14:54:33;39.70;1.00
1476;DHT22;730;48.870;12.542;2023-06-22T14:56:59;39.60;1.00
1476;DHT22;730;48.870;12.542;2023-06-22T14:59:25;39.50;1.00
1476;DHT22;730;48.870;12.542;2023-06-22T15:01:51;39.30;1.00
1476;DHT22;730;48.870;12.542;2023-06-22T15:04:17;39.20;1.00
1476;DHT22;730;48.870;12.542;2023-06-22T15:06:43;39.00;1.00
1476;DHT22;730;48.870;12.542;2023-06-22T15:09:11;39.00;1.00
1476;DHT22;730;48.870;12.542;2023-06-22T15:11:37;38.90;1.00
1476;DHT22;730;48.870;12.542;2023-06-22T15:14:03;38.80;1.00
1476;DHT22;730;48.870;12.542;2023-06-22T15:16:29;38.90;1.00
1476;DHT22;730;48.870;12.542;2023-06-22T15:18:55;38.80;1.00
1476;DHT22;730;48.870;12.542;2023-06-22T15:21:21;38.80;1.00
1476;DHT22;730;48.870;12.542;2023-06-22T15:23:47;38.60;1.00
1476;DHT22;730;48.870;12.542;2023-06-22T15:26:14;38.60;1.00
1476;DHT22;730;48.870;12.542;2023-06-22T15:28:40;38.50;1.00
1476;DHT22;730;48.870;12.542;2023-06-22T15:31:06;38.40;1.00
1476;DHT22;730;48.870;12.542;2023-06-22T15:33:32;38.40;1.00
1476;DHT22;730;48.870;12.542;2023-06-22T15:35:58;38.30;1.00
1476;DHT22;730;48.870;12.542;2023-06-22T15:38:29;38.20;1.00
1476;DHT22;730;48.870;12.542;2023-06-22T15:40:57;38.20;1.00
1476;DHT22;730;48.870;12.542;2023-06-22T15:43:23;38.10;1.00
1476;DHT22;730;48.870;12.542;2023-06-22T15:45:49;38.10;1.00
1476;DHT22;730;48.870;12.542;2023-06-22T15:48:15;38.00;1.00
1476;DHT22;730;48.870;12.542;2023-06-22T15:50:41;38.00;1.00
1476;DHT22;730;48.870;12.542;2023-06-22T15:53:07;38.00;1.00
1476;DHT22;730;48.870;12.542;2023-06-22T15:55:33;38.00;1.00
1476;DHT22;730;48.870;12.542;2023-06-22T15:58:01;38.00;1.00
1476;DHT22;730;48.870;12.542;2023-06-22T16:00:27;38.00;1.00
1476;DHT22;730;48.870;12.542;2023-06-22T16:02:53;37.90;1.00
1476;DHT22;730;48.870;12.542;2023-06-22T16:05:19;37.80;1.00
1476;DHT22;730;48.870;12.542;2023-06-22T16:07:45;37.60;1.00
1476;DHT22;730;48.870;12.542;2023-06-22T16:10:11;37.60;1.00
1476;DHT22;730;48.870;12.542;2023-06-22T16:12:42;37.50;1.00
1476;DHT22;730;48.870;12.542;2023-06-22T16:15:09;37.40;1.00
1476;DHT22;730;48.870;12.542;2023-06-22T16:17:35;37.40;1.00
1476;DHT22;730;48.870;12.542;2023-06-22T16:20:08;37.30;1.00
1476;DHT22;730;48.870;12.542;2023-06-22T16:22:35;37.20;1.00